sensor_id;sensor_type;location;lat;lon;timestamp;P1;durP1;ratioP1;P2;durP2;ratioP2
38226;SDS011;24026;49.446;8.576;2024-02-04T00:01:19;123.18;;;110.22;;
38226;SDS011;24026;49.446;8.576;2024-02-04T00:03:40;123.55;;;110.45;;
38226;SDS011;24026;49.446;8.576;2024-02-04T00:06:01;122.88;;;109.78;;
38226;SDS011;24026;49.446;8.576;2024-02-04T00:08:21;123.30;;;110.25;;
38226;SDS011;24026;49.446;8.576;2024-02-04T00:10:42;122.68;;;109.72;;
38226;SDS011;24026;49.446;8.576;2024-02-04T00:13:02;123.60;;;110.50;;
38226;SDS011;24026;49.446;8.576;2024-02-04T00:15:23;124.45;;;111.35;;
38226;SDS011;24026;49.446;8.576;2024-02-04T00:17:44;122.20;;;109.28;;
38226;SDS011;24026;49.446;8.576;2024-02-04T00:20:04;123.28;;;110.28;;
38226;SDS011;24026;49.446;8.576;2024-02-04T00:22:25;122.75;;;109.72;;
38226;SDS011;24026;49.446;8.576;2024-02-04T00:24:46;122.65;;;109.72;;
38226;SDS011;24026;49.446;8.576;2024-02-04T00:27:06;123.22;;;110.25;;
38226;SDS011;24026;49.446;8.576;2024-02-04T00:29:26;124.40;;;111.30;;
38226;SDS011;24026;49.446;8.576;2024-02-04T00:31:47;122.78;;;109.75;;
38226;SDS011;24026;49.446;8.576;2024-02-04T00:34:07;120.68;;;107.68;;
38226;SDS011;24026;49.446;8.576;2024-02-04T00:36:27;122.00;;;109.05;;
38226;SDS011;24026;49.446;8.576;2024-02-04T00:38:48;121.57;;;108.63;;
38226;SDS011;24026;49.446;8.576;2024-02-04T00:41:08;121.85;;;108.75;;
38226;SDS011;24026;49.446;8.576;2024-02-04T00:43:29;121.13;;;108.28;;
38226;SDS011;24026;49.446;8.576;2024-02-04T00:45:49;120.97;;;108.10;;
38226;SDS011;24026;49.446;8.576;2024-02-04T00:48:09;122.13;;;109.20;;
38226;SDS011;24026;49.446;8.576;2024-02-04T00:50:30;122.47;;;109.43;;
38226;SDS011;24026;49.446;8.576;2024-02-04T00:52:50;121.68;;;108.78;;
38226;SDS011;24026;49.446;8.576;2024-02-04T00:55:13;121.93;;;108.97;;
38226;SDS011;24026;49.446;8.576;2024-02-04T00:57:33;123.47;;;110.45;;
38226;SDS011;24026;49.446;8.576;2024-02-04T00:59:54;122.63;;;109.63;;
38226;SDS011;24026;49.446;8.576;2024-02-04T01:02:14;121.32;;;108.50;;
38226;SDS011;24026;49.446;8.576;2024-02-04T01:04:34;120.82;;;107.93;;
38226;SDS011;24026;49.446;8.576;2024-02-04T01:06:55;122.80;;;109.88;;
38226;SDS011;24026;49.446;8.576;2024-02-04T01:09:15;122.63;;;109.65;;
38226;SDS011;24026;49.446;8.576;2024-02-04T01:11:36;121.65;;;108.75;;
38226;SDS011;24026;49.446;8.576;2024-02-04T01:13:56;122.60;;;109.65;;
38226;SDS011;24026;49.446;8.576;2024-02-04T01:16:17;122.30;;;109.40;;
38226;SDS011;24026;49.446;8.576;2024-02-04T01:18:37;122.00;;;109.07;;
38226;SDS011;24026;49.446;8.576;2024-02-04T01:20:58;122.38;;;109.40;;
38226;SDS011;24026;49.446;8.576;2024-02-04T01:23:20;121.28;;;108.38;;
38226;SDS011;24026;49.446;8.576;2024-02-04T01:25:40;122.25;;;109.32;;
38226;SDS011;24026;49.446;8.576;2024-02-04T01:28:01;122.40;;;109.47;;
38226;SDS011;24026;49.446;8.576;2024-02-04T01:30:21;121.18;;;108.28;;
38226;SDS011;24026;49.446;8.576;2024-02-04T01:32:41;121.50;;;108.63;;
38226;SDS011;24026;49.446;8.576;2024-02-04T01:35:02;121.53;;;108.63;;
38226;SDS011;24026;49.446;8.576;2024-02-04T01:37:23;120.45;;;107.57;;
38226;SDS011;24026;49.446;8.576;2024-02-04T01:39:43;121.28;;;108.43;;
38226;SDS011;24026;49.446;8.576;2024-02-04T01:42:04;121.13;;;108.28;;
38226;SDS011;24026;49.446;8.576;2024-02-04T01:44:25;120.95;;;108.07;;
38226;SDS011;24026;49.446;8.576;2024-02-04T01:46:46;120.85;;;107.88;;
38226;SDS011;24026;49.446;8.576;2024-02-04T01:49:06;121.22;;;108.30;;
38226;SDS011;24026;49.446;8.576;2024-02-04T01:51:27;122.00;;;109.00;;
38226;SDS011;24026;49.446;8.576;2024-02-04T01:53:47;120.30;;;107.47;;
38226;SDS011;24026;49.446;8.576;2024-02-04T01:56:10;120.50;;;107.65;;
38226;SDS011;24026;49.446;8.576;2024-02-04T01:58:31;121.80;;;108.82;;
38226;SDS011;24026;49.446;8.576;2024-02-04T02:00:51;122.18;;;109.13;;
38226;SDS011;24026;49.446;8.576;2024-02-04T02:03:12;121.80;;;108.88;;
38226;SDS011;24026;49.446;8.576;2024-02-04T02:05:34;121.70;;;108.80;;
38226;SDS011;24026;49.446;8.576;2024-02-04T02:07:55;121.85;;;108.90;;
38226;SDS011;24026;49.446;8.576;2024-02-04T02:10:16;120.93;;;108.03;;
38226;SDS011;24026;49.446;8.576;2024-02-04T02:12:43;120.88;;;107.82;;
38226;SDS011;24026;49.446;8.576;2024-02-04T02:15:08;120.43;;;107.55;;
38226;SDS011;24026;49.446;8.576;2024-02-04T02:17:41;122.45;;;109.50;;
38226;SDS011;24026;49.446;8.576;2024-02-04T02:20:12;120.70;;;107.75;;
38226;SDS011;24026;49.446;8.576;2024-02-04T02:23:03;121.60;;;108.63;;
38226;SDS011;24026;49.446;8.576;2024-02-04T02:25:30;121.40;;;108.40;;
38226;SDS011;24026;49.446;8.576;2024-02-04T02:27:51;121.47;;;108.55;;
38226;SDS011;24026;49.446;8.576;2024-02-04T02:30:12;121.43;;;108.53;;
38226;SDS011;24026;49.446;8.576;2024-02-04T02:32:32;122.10;;;109.10;;
38226;SDS011;24026;49.446;8.576;2024-02-04T02:34:53;122.13;;;109.18;;
38226;SDS011;24026;49.446;8.576;2024-02-04T02:39:40;122.95;;;109.95;;
38226;SDS011;24026;49.446;8.576;2024-02-04T02:42:05;122.43;;;109.38;;
38226;SDS011;24026;49.446;8.576;2024-02-04T02:44:27;120.13;;;107.30;;
38226;SDS011;24026;49.446;8.576;2024-02-04T02:46:48;121.20;;;108.25;;
38226;SDS011;24026;49.446;8.576;2024-02-04T02:49:09;120.68;;;107.85;;
38226;SDS011;24026;49.446;8.576;2024-02-04T02:51:30;120.88;;;107.93;;
38226;SDS011;24026;49.446;8.576;2024-02-04T02:53:50;123.07;;;109.97;;
38226;SDS011;24026;49.446;8.576;2024-02-04T02:56:11;122.28;;;109.28;;
38226;SDS011;24026;49.446;8.576;2024-02-04T02:58:31;121.38;;;108.47;;
38226;SDS011;24026;49.446;8.576;2024-02-04T03:00:52;121.28;;;108.38;;
38226;SDS011;24026;49.446;8.576;2024-02-04T03:03:12;120.90;;;107.97;;
38226;SDS011;24026;49.446;8.576;2024-02-04T03:05:34;120.80;;;107.90;;
38226;SDS011;24026;49.446;8.576;2024-02-04T03:07:54;121.63;;;108.70;;
38226;SDS011;24026;49.446;8.576;2024-02-04T03:10:15;122.13;;;109.18;;
38226;SDS011;24026;49.446;8.576;2024-02-04T03:12:35;121.10;;;108.20;;
38226;SDS011;24026;49.446;8.576;2024-02-04T03:14:55;120.45;;;107.55;;
38226;SDS011;24026;49.446;8.576;2024-02-04T03:17:16;120.97;;;108.03;;
38226;SDS011;24026;49.446;8.576;2024-02-04T03:19:40;120.43;;;107.50;;
38226;SDS011;24026;49.446;8.576;2024-02-04T03:22:01;121.05;;;108.20;;
38226;SDS011;24026;49.446;8.576;2024-02-04T03:24:21;121.70;;;108.70;;
38226;SDS011;24026;49.446;8.576;2024-02-04T03:26:41;120.30;;;107.43;;
38226;SDS011;24026;49.446;8.576;2024-02-04T03:29:02;120.95;;;108.05;;
38226;SDS011;24026;49.446;8.576;2024-02-04T03:31:24;121.82;;;108.72;;
38226;SDS011;24026;49.446;8.576;2024-02-04T03:33:45;121.65;;;108.65;;
38226;SDS011;24026;49.446;8.576;2024-02-04T03:36:06;121.30;;;108.35;;
38226;SDS011;24026;49.446;8.576;2024-02-04T03:38:26;120.75;;;107.85;;
38226;SDS011;24026;49.446;8.576;2024-02-04T03:40:47;122.03;;;109.03;;
38226;SDS011;24026;49.446;8.576;2024-02-04T03:43:09;120.47;;;107.57;;
38226;SDS011;24026;49.446;8.576;2024-02-04T03:45:29;119.90;;;107.10;;
38226;SDS011;24026;49.446;8.576;2024-02-04T03:47:49;120.70;;;107.80;;
38226;SDS011;24026;49.446;8.576;2024-02-04T03:50:10;121.25;;;108.35;;
38226;SDS011;24026;49.446;8.576;2024-02-04T03:52:30;120.05;;;107.20;;
38226;SDS011;24026;49.446;8.576;2024-02-04T03:54:51;119.85;;;107.03;;
38226;SDS011;24026;49.446;8.576;2024-02-04T03:57:11;121.07;;;108.18;;
38226;SDS011;24026;49.446;8.576;2024-02-04T03:59:31;119.93;;;107.07;;
38226;SDS011;24026;49.446;8.576;2024-02-04T04:01:52;120.55;;;107.75;;
38226;SDS011;24026;49.446;8.576;2024-02-04T04:04:16;120.70;;;107.75;;
38226;SDS011;24026;49.446;8.576;2024-02-04T04:06:37;121.00;;;108.10;;
38226;SDS011;24026;49.446;8.576;2024-02-04T04:08:57;121.00;;;108.10;;
38226;SDS011;24026;49.446;8.576;2024-02-04T04:11:19;120.90;;;108.03;;
38226;SDS011;24026;49.446;8.576;2024-02-04T04:13:39;120.82;;;107.93;;
38226;SDS011;24026;49.446;8.576;2024-02-04T04:16:00;121.60;;;108.68;;
38226;SDS011;24026;49.446;8.576;2024-02-04T04:18:21;121.15;;;108.25;;
38226;SDS011;24026;49.446;8.576;2024-02-04T04:20:41;123.03;;;109.95;;
38226;SDS011;24026;49.446;8.576;2024-02-04T04:23:02;120.47;;;107.60;;
38226;SDS011;24026;49.446;8.576;2024-02-04T04:25:22;120.20;;;107.40;;
38226;SDS011;24026;49.446;8.576;2024-02-04T04:27:43;120.63;;;107.80;;
38226;SDS011;24026;49.446;8.576;2024-02-04T04:30:04;120.97;;;108.13;;
38226;SDS011;24026;49.446;8.576;2024-02-04T04:32:24;119.75;;;106.93;;
38226;SDS011;24026;49.446;8.576;2024-02-04T04:34:45;119.35;;;106.57;;
38226;SDS011;24026;49.446;8.576;2024-02-04T04:37:05;121.30;;;108.40;;
38226;SDS011;24026;49.446;8.576;2024-02-04T04:39:26;120.88;;;107.90;;
38226;SDS011;24026;49.446;8.576;2024-02-04T04:41:47;121.20;;;108.30;;
38226;SDS011;24026;49.446;8.576;2024-02-04T04:44:07;120.32;;;107.43;;
38226;SDS011;24026;49.446;8.576;2024-02-04T04:46:27;120.47;;;107.63;;
38226;SDS011;24026;49.446;8.576;2024-02-04T04:48:48;121.05;;;108.13;;
38226;SDS011;24026;49.446;8.576;2024-02-04T04:51:08;121.18;;;108.28;;
38226;SDS011;24026;49.446;8.576;2024-02-04T04:53:31;120.47;;;107.63;;
38226;SDS011;24026;49.446;8.576;2024-02-04T04:55:51;120.78;;;107.85;;
38226;SDS011;24026;49.446;8.576;2024-02-04T04:58:12;121.03;;;108.03;;
38226;SDS011;24026;49.446;8.576;2024-02-04T05:00:32;120.50;;;107.50;;
38226;SDS011;24026;49.446;8.576;2024-02-04T05:02:53;120.60;;;107.68;;
38226;SDS011;24026;49.446;8.576;2024-02-04T05:05:13;119.65;;;106.82;;
38226;SDS011;24026;49.446;8.576;2024-02-04T05:07:34;120.80;;;107.95;;
38226;SDS011;24026;49.446;8.576;2024-02-04T05:09:54;121.43;;;108.45;;
38226;SDS011;24026;49.446;8.576;2024-02-04T05:12:14;120.05;;;107.25;;
38226;SDS011;24026;49.446;8.576;2024-02-04T05:14:35;121.65;;;108.72;;
38226;SDS011;24026;49.446;8.576;2024-02-04T05:16:55;120.63;;;107.75;;
38226;SDS011;24026;49.446;8.576;2024-02-04T05:19:16;120.68;;;107.70;;
38226;SDS011;24026;49.446;8.576;2024-02-04T05:21:39;120.65;;;107.75;;
38226;SDS011;24026;49.446;8.576;2024-02-04T05:24:00;118.22;;;105.47;;
38226;SDS011;24026;49.446;8.576;2024-02-04T05:26:20;120.22;;;107.40;;
38226;SDS011;24026;49.446;8.576;2024-02-04T05:28:41;120.97;;;108.10;;
38226;SDS011;24026;49.446;8.576;2024-02-04T05:31:01;121.28;;;108.38;;
38226;SDS011;24026;49.446;8.576;2024-02-04T05:33:22;120.75;;;107.88;;
38226;SDS011;24026;49.446;8.576;2024-02-04T05:35:43;121.15;;;108.28;;
38226;SDS011;24026;49.446;8.576;2024-02-04T05:38:03;120.28;;;107.43;;
38226;SDS011;24026;49.446;8.576;2024-02-04T05:40:24;119.35;;;106.55;;
38226;SDS011;24026;49.446;8.576;2024-02-04T05:42:44;120.50;;;107.68;;
38226;SDS011;24026;49.446;8.576;2024-02-04T05:45:04;120.15;;;107.28;;
38226;SDS011;24026;49.446;8.576;2024-02-04T05:47:26;121.20;;;108.32;;
38226;SDS011;24026;49.446;8.576;2024-02-04T05:49:46;119.63;;;106.85;;
38226;SDS011;24026;49.446;8.576;2024-02-04T05:52:06;120.22;;;107.38;;
38226;SDS011;24026;49.446;8.576;2024-02-04T05:54:27;120.30;;;107.45;;
38226;SDS011;24026;49.446;8.576;2024-02-04T05:56:47;120.90;;;108.00;;
38226;SDS011;24026;49.446;8.576;2024-02-04T05:59:07;119.85;;;107.00;;
38226;SDS011;24026;49.446;8.576;2024-02-04T06:01:28;119.95;;;107.13;;
38226;SDS011;24026;49.446;8.576;2024-02-04T06:03:48;119.22;;;106.45;;
38226;SDS011;24026;49.446;8.576;2024-02-04T06:06:09;119.88;;;107.10;;
38226;SDS011;24026;49.446;8.576;2024-02-04T06:08:34;118.63;;;105.85;;
38226;SDS011;24026;49.446;8.576;2024-02-04T06:10:54;118.88;;;106.10;;
38226;SDS011;24026;49.446;8.576;2024-02-04T06:13:15;119.32;;;106.47;;
38226;SDS011;24026;49.446;8.576;2024-02-04T06:15:35;119.30;;;106.50;;
38226;SDS011;24026;49.446;8.576;2024-02-04T06:17:56;120.35;;;107.50;;
38226;SDS011;24026;49.446;8.576;2024-02-04T06:20:16;119.78;;;106.97;;
38226;SDS011;24026;49.446;8.576;2024-02-04T06:22:37;120.20;;;107.32;;
38226;SDS011;24026;49.446;8.576;2024-02-04T06:24:57;119.78;;;106.97;;
38226;SDS011;24026;49.446;8.576;2024-02-04T06:27:17;118.65;;;105.90;;
38226;SDS011;24026;49.446;8.576;2024-02-04T06:29:38;119.32;;;106.50;;
38226;SDS011;24026;49.446;8.576;2024-02-04T06:31:59;120.03;;;107.22;;
38226;SDS011;24026;49.446;8.576;2024-02-04T06:34:20;119.18;;;106.40;;
38226;SDS011;24026;49.446;8.576;2024-02-04T06:36:43;119.43;;;106.63;;
38226;SDS011;24026;49.446;8.576;2024-02-04T06:39:05;118.72;;;105.95;;
38226;SDS011;24026;49.446;8.576;2024-02-04T06:41:28;118.65;;;105.88;;
38226;SDS011;24026;49.446;8.576;2024-02-04T06:43:49;119.43;;;106.63;;
38226;SDS011;24026;49.446;8.576;2024-02-04T06:46:09;119.25;;;106.38;;
38226;SDS011;24026;49.446;8.576;2024-02-04T06:48:29;119.80;;;106.88;;
38226;SDS011;24026;49.446;8.576;2024-02-04T06:50:50;120.32;;;107.47;;
38226;SDS011;24026;49.446;8.576;2024-02-04T06:53:10;117.68;;;104.93;;
38226;SDS011;24026;49.446;8.576;2024-02-04T06:55:30;119.10;;;106.22;;
38226;SDS011;24026;49.446;8.576;2024-02-04T06:57:51;118.97;;;106.20;;
38226;SDS011;24026;49.446;8.576;2024-02-04T07:00:11;119.63;;;106.80;;
38226;SDS011;24026;49.446;8.576;2024-02-04T07:02:32;119.35;;;106.55;;
38226;SDS011;24026;49.446;8.576;2024-02-04T07:04:52;119.15;;;106.35;;
38226;SDS011;24026;49.446;8.576;2024-02-04T07:07:13;119.80;;;106.60;;
38226;SDS011;24026;49.446;8.576;2024-02-04T07:09:33;119.68;;;106.82;;
38226;SDS011;24026;49.446;8.576;2024-02-04T07:11:54;119.65;;;106.80;;
38226;SDS011;24026;49.446;8.576;2024-02-04T07:14:14;118.68;;;105.93;;
38226;SDS011;24026;49.446;8.576;2024-02-04T07:16:35;119.07;;;106.22;;
38226;SDS011;24026;49.446;8.576;2024-02-04T07:18:55;118.63;;;105.85;;
38226;SDS011;24026;49.446;8.576;2024-02-04T07:21:16;120.07;;;107.20;;
38226;SDS011;24026;49.446;8.576;2024-02-04T07:23:36;118.47;;;105.72;;
38226;SDS011;24026;49.446;8.576;2024-02-04T07:25:57;117.80;;;105.10;;
38226;SDS011;24026;49.446;8.576;2024-02-04T07:28:17;120.00;;;107.15;;
38226;SDS011;24026;49.446;8.576;2024-02-04T07:30:37;118.72;;;105.93;;
38226;SDS011;24026;49.446;8.576;2024-02-04T07:32:58;118.60;;;105.88;;
38226;SDS011;24026;49.446;8.576;2024-02-04T07:35:18;119.07;;;106.28;;
38226;SDS011;24026;49.446;8.576;2024-02-04T07:37:39;119.75;;;106.88;;
38226;SDS011;24026;49.446;8.576;2024-02-04T07:39:59;119.32;;;106.47;;
38226;SDS011;24026;49.446;8.576;2024-02-04T07:42:20;118.88;;;106.00;;
38226;SDS011;24026;49.446;8.576;2024-02-04T07:44:40;119.25;;;106.43;;
38226;SDS011;24026;49.446;8.576;2024-02-04T07:47:01;118.72;;;105.95;;
38226;SDS011;24026;49.446;8.576;2024-02-04T07:49:21;119.32;;;106.47;;
38226;SDS011;24026;49.446;8.576;2024-02-04T07:51:41;118.88;;;106.18;;
38226;SDS011;24026;49.446;8.576;2024-02-04T07:54:02;119.45;;;106.68;;
38226;SDS011;24026;49.446;8.576;2024-02-04T07:56:23;119.32;;;106.53;;
38226;SDS011;24026;49.446;8.576;2024-02-04T07:58:43;119.63;;;106.75;;
38226;SDS011;24026;49.446;8.576;2024-02-04T08:01:04;121.82;;;108.82;;
38226;SDS011;24026;49.446;8.576;2024-02-04T08:03:24;119.35;;;106.50;;
38226;SDS011;24026;49.446;8.576;2024-02-04T08:05:44;120.40;;;107.53;;
38226;SDS011;24026;49.446;8.576;2024-02-04T08:08:05;120.28;;;107.43;;
38226;SDS011;24026;49.446;8.576;2024-02-04T08:10:26;119.82;;;107.03;;
38226;SDS011;24026;49.446;8.576;2024-02-04T08:12:47;121.10;;;108.20;;
38226;SDS011;24026;49.446;8.576;2024-02-04T08:15:10;120.18;;;107.30;;
38226;SDS011;24026;49.446;8.576;2024-02-04T08:17:31;120.97;;;108.15;;
38226;SDS011;24026;49.446;8.576;2024-02-04T08:19:52;119.47;;;106.60;;
38226;SDS011;24026;49.446;8.576;2024-02-04T08:22:12;120.65;;;107.70;;
38226;SDS011;24026;49.446;8.576;2024-02-04T08:24:33;119.68;;;106.82;;
38226;SDS011;24026;49.446;8.576;2024-02-04T08:26:53;119.85;;;107.00;;
38226;SDS011;24026;49.446;8.576;2024-02-04T08:29:14;121.10;;;108.15;;
38226;SDS011;24026;49.446;8.576;2024-02-04T08:31:34;119.80;;;106.90;;
38226;SDS011;24026;49.446;8.576;2024-02-04T08:33:55;119.88;;;106.97;;
38226;SDS011;24026;49.446;8.576;2024-02-04T08:36:15;119.97;;;107.15;;
38226;SDS011;24026;49.446;8.576;2024-02-04T08:38:36;120.22;;;107.35;;
38226;SDS011;24026;49.446;8.576;2024-02-04T08:40:57;119.03;;;106.22;;
38226;SDS011;24026;49.446;8.576;2024-02-04T08:43:17;120.50;;;107.65;;
38226;SDS011;24026;49.446;8.576;2024-02-04T08:45:38;118.72;;;105.97;;
38226;SDS011;24026;49.446;8.576;2024-02-04T08:47:58;119.50;;;106.65;;
38226;SDS011;24026;49.446;8.576;2024-02-04T08:50:19;118.78;;;106.03;;
38226;SDS011;24026;49.446;8.576;2024-02-04T08:52:40;120.47;;;107.65;;
38226;SDS011;24026;49.446;8.576;2024-02-04T08:55:00;120.25;;;107.43;;
38226;SDS011;24026;49.446;8.576;2024-02-04T08:57:23;119.70;;;106.90;;
38226;SDS011;24026;49.446;8.576;2024-02-04T08:59:44;120.93;;;108.03;;
38226;SDS011;24026;49.446;8.576;2024-02-04T09:02:04;119.25;;;106.47;;
38226;SDS011;24026;49.446;8.576;2024-02-04T09:04:25;119.53;;;106.75;;
38226;SDS011;24026;49.446;8.576;2024-02-04T09:06:46;121.60;;;108.72;;
38226;SDS011;24026;49.446;8.576;2024-02-04T09:09:06;122.03;;;109.03;;
38226;SDS011;24026;49.446;8.576;2024-02-04T09:11:28;120.40;;;107.50;;
38226;SDS011;24026;49.446;8.576;2024-02-04T09:13:48;119.35;;;106.57;;
38226;SDS011;24026;49.446;8.576;2024-02-04T09:16:09;119.20;;;106.40;;
38226;SDS011;24026;49.446;8.576;2024-02-04T09:18:29;119.75;;;106.90;;
38226;SDS011;24026;49.446;8.576;2024-02-04T09:20:50;121.35;;;108.43;;
38226;SDS011;24026;49.446;8.576;2024-02-04T09:23:10;121.15;;;108.28;;
38226;SDS011;24026;49.446;8.576;2024-02-04T09:25:31;122.38;;;109.40;;
38226;SDS011;24026;49.446;8.576;2024-02-04T09:27:51;121.07;;;108.15;;
38226;SDS011;24026;49.446;8.576;2024-02-04T09:30:12;120.95;;;108.07;;
38226;SDS011;24026;49.446;8.576;2024-02-04T09:32:32;120.50;;;107.70;;
38226;SDS011;24026;49.446;8.576;2024-02-04T09:34:54;120.13;;;107.32;;
38226;SDS011;24026;49.446;8.576;2024-02-04T09:37:14;120.95;;;108.07;;
38226;SDS011;24026;49.446;8.576;2024-02-04T09:39:35;120.13;;;107.28;;
38226;SDS011;24026;49.446;8.576;2024-02-04T09:41:55;120.53;;;107.63;;
38226;SDS011;24026;49.446;8.576;2024-02-04T09:44:16;120.47;;;107.57;;
38226;SDS011;24026;49.446;8.576;2024-02-04T09:46:38;121.25;;;108.28;;
38226;SDS011;24026;49.446;8.576;2024-02-04T09:48:58;118.93;;;106.15;;
38226;SDS011;24026;49.446;8.576;2024-02-04T09:51:20;120.93;;;108.10;;
38226;SDS011;24026;49.446;8.576;2024-02-04T09:53:44;120.38;;;107.57;;
38226;SDS011;24026;49.446;8.576;2024-02-04T09:56:05;121.00;;;108.10;;
38226;SDS011;24026;49.446;8.576;2024-02-04T09:58:26;120.28;;;107.47;;
38226;SDS011;24026;49.446;8.576;2024-02-04T10:00:47;121.38;;;108.55;;
38226;SDS011;24026;49.446;8.576;2024-02-04T10:03:07;122.15;;;109.18;;
38226;SDS011;24026;49.446;8.576;2024-02-04T10:05:28;123.05;;;110.05;;
38226;SDS011;24026;49.446;8.576;2024-02-04T10:07:49;121.78;;;108.90;;
38226;SDS011;24026;49.446;8.576;2024-02-04T10:10:09;122.75;;;109.75;;
38226;SDS011;24026;49.446;8.576;2024-02-04T10:12:32;122.72;;;109.72;;
38226;SDS011;24026;49.446;8.576;2024-02-04T10:14:52;122.47;;;109.50;;
38226;SDS011;24026;49.446;8.576;2024-02-04T10:17:15;122.03;;;109.13;;
38226;SDS011;24026;49.446;8.576;2024-02-04T10:19:36;122.90;;;109.93;;
38226;SDS011;24026;49.446;8.576;2024-02-04T10:22:00;121.55;;;108.70;;
38226;SDS011;24026;49.446;8.576;2024-02-04T10:24:21;121.35;;;108.47;;
38226;SDS011;24026;49.446;8.576;2024-02-04T10:26:41;121.60;;;108.70;;
38226;SDS011;24026;49.446;8.576;2024-02-04T10:29:03;122.78;;;109.80;;
38226;SDS011;24026;49.446;8.576;2024-02-04T10:31:24;121.32;;;108.50;;
38226;SDS011;24026;49.446;8.576;2024-02-04T10:33:46;121.65;;;108.78;;
38226;SDS011;24026;49.446;8.576;2024-02-04T10:36:06;122.85;;;109.93;;
38226;SDS011;24026;49.446;8.576;2024-02-04T10:38:27;121.75;;;108.93;;
38226;SDS011;24026;49.446;8.576;2024-02-04T10:40:48;123.22;;;110.25;;
38226;SDS011;24026;49.446;8.576;2024-02-04T10:43:12;122.05;;;109.15;;
38226;SDS011;24026;49.446;8.576;2024-02-04T10:45:33;121.55;;;108.72;;
38226;SDS011;24026;49.446;8.576;2024-02-04T10:48:00;122.07;;;109.07;;
38226;SDS011;24026;49.446;8.576;2024-02-04T10:50:21;122.25;;;109.25;;
38226;SDS011;24026;49.446;8.576;2024-02-04T10:52:44;121.78;;;108.88;;
38226;SDS011;24026;49.446;8.576;2024-02-04T10:55:10;122.72;;;109.75;;
38226;SDS011;24026;49.446;8.576;2024-02-04T10:57:31;122.15;;;109.30;;
38226;SDS011;24026;49.446;8.576;2024-02-04T10:59:51;122.43;;;109.53;;
38226;SDS011;24026;49.446;8.576;2024-02-04T11:02:12;122.18;;;109.28;;
38226;SDS011;24026;49.446;8.576;2024-02-04T11:04:35;123.22;;;110.18;;
38226;SDS011;24026;49.446;8.576;2024-02-04T11:06:56;122.00;;;109.10;;
38226;SDS011;24026;49.446;8.576;2024-02-04T11:09:17;122.35;;;109.40;;
38226;SDS011;24026;49.446;8.576;2024-02-04T11:11:39;122.13;;;109.22;;
38226;SDS011;24026;49.446;8.576;2024-02-04T11:14:01;121.40;;;108.57;;
38226;SDS011;24026;49.446;8.576;2024-02-04T11:27:13;121.07;;;108.18;;
38226;SDS011;24026;49.446;8.576;2024-02-04T11:29:33;121.00;;;108.20;;
38226;SDS011;24026;49.446;8.576;2024-02-04T11:31:56;122.15;;;109.25;;
38226;SDS011;24026;49.446;8.576;2024-02-04T11:34:16;122.30;;;109.47;;
38226;SDS011;24026;49.446;8.576;2024-02-04T11:36:37;123.18;;;110.25;;
38226;SDS011;24026;49.446;8.576;2024-02-04T11:38:59;122.78;;;109.85;;
38226;SDS011;24026;49.446;8.576;2024-02-04T11:41:23;122.75;;;109.85;;
38226;SDS011;24026;49.446;8.576;2024-02-04T11:43:45;122.18;;;109.32;;
38226;SDS011;24026;49.446;8.576;2024-02-04T11:46:05;123.57;;;110.60;;
38226;SDS011;24026;49.446;8.576;2024-02-04T11:48:30;122.95;;;110.03;;
38226;SDS011;24026;49.446;8.576;2024-02-04T11:50:52;122.10;;;109.25;;
38226;SDS011;24026;49.446;8.576;2024-02-04T11:53:14;122.25;;;109.40;;
38226;SDS011;24026;49.446;8.576;2024-02-04T11:55:35;122.50;;;109.63;;
38226;SDS011;24026;49.446;8.576;2024-02-04T11:57:56;121.80;;;109.00;;
38226;SDS011;24026;49.446;8.576;2024-02-04T12:00:17;124.10;;;111.10;;
38226;SDS011;24026;49.446;8.576;2024-02-04T12:02:38;122.82;;;109.95;;
38226;SDS011;24026;49.446;8.576;2024-02-04T12:04:58;122.20;;;109.40;;
38226;SDS011;24026;49.446;8.576;2024-02-04T12:07:20;121.47;;;108.68;;
38226;SDS011;24026;49.446;8.576;2024-02-04T12:09:40;121.15;;;108.38;;
38226;SDS011;24026;49.446;8.576;2024-02-04T12:12:03;122.53;;;109.65;;
38226;SDS011;24026;49.446;8.576;2024-02-04T12:14:24;122.13;;;109.28;;
38226;SDS011;24026;49.446;8.576;2024-02-04T12:16:45;122.43;;;109.53;;
38226;SDS011;24026;49.446;8.576;2024-02-04T12:19:05;122.43;;;109.60;;
38226;SDS011;24026;49.446;8.576;2024-02-04T12:21:26;123.32;;;110.45;;
38226;SDS011;24026;49.446;8.576;2024-02-04T12:23:47;120.82;;;108.07;;
38226;SDS011;24026;49.446;8.576;2024-02-04T12:26:07;121.07;;;108.30;;
38226;SDS011;24026;49.446;8.576;2024-02-04T12:28:27;121.90;;;109.07;;
38226;SDS011;24026;49.446;8.576;2024-02-04T12:30:54;122.55;;;109.63;;
38226;SDS011;24026;49.446;8.576;2024-02-04T12:35:38;120.25;;;107.45;;
38226;SDS011;24026;49.446;8.576;2024-02-04T12:37:58;122.70;;;109.72;;
38226;SDS011;24026;49.446;8.576;2024-02-04T12:40:23;120.78;;;107.90;;
38226;SDS011;24026;49.446;8.576;2024-02-04T12:42:44;121.05;;;108.18;;
38226;SDS011;24026;49.446;8.576;2024-02-04T12:45:05;121.65;;;108.85;;
38226;SDS011;24026;49.446;8.576;2024-02-04T12:47:26;121.88;;;109.00;;
38226;SDS011;24026;49.446;8.576;2024-02-04T12:49:48;120.28;;;107.57;;
38226;SDS011;24026;49.446;8.576;2024-02-04T12:52:09;121.03;;;108.13;;
38226;SDS011;24026;49.446;8.576;2024-02-04T12:54:30;121.50;;;108.70;;
38226;SDS011;24026;49.446;8.576;2024-02-04T12:56:51;122.25;;;109.35;;
38226;SDS011;24026;49.446;8.576;2024-02-04T12:59:28;121.43;;;108.63;;
38226;SDS011;24026;49.446;8.576;2024-02-04T13:01:53;120.40;;;107.63;;
38226;SDS011;24026;49.446;8.576;2024-02-04T13:04:15;122.28;;;109.28;;
38226;SDS011;24026;49.446;8.576;2024-02-04T13:06:39;120.05;;;107.35;;
38226;SDS011;24026;49.446;8.576;2024-02-04T13:09:00;121.80;;;109.00;;
38226;SDS011;24026;49.446;8.576;2024-02-04T13:11:20;121.40;;;108.60;;
38226;SDS011;24026;49.446;8.576;2024-02-04T13:13:41;121.93;;;109.13;;
38226;SDS011;24026;49.446;8.576;2024-02-04T13:16:02;122.05;;;109.20;;
38226;SDS011;24026;49.446;8.576;2024-02-04T13:18:22;122.82;;;109.95;;
38226;SDS011;24026;49.446;8.576;2024-02-04T13:20:43;121.60;;;108.68;;
38226;SDS011;24026;49.446;8.576;2024-02-04T13:23:05;122.22;;;109.38;;
38226;SDS011;24026;49.446;8.576;2024-02-04T13:25:25;121.65;;;108.85;;
38226;SDS011;24026;49.446;8.576;2024-02-04T13:27:46;122.75;;;109.85;;
38226;SDS011;24026;49.446;8.576;2024-02-04T13:30:07;121.97;;;109.10;;
38226;SDS011;24026;49.446;8.576;2024-02-04T13:32:32;121.60;;;108.80;;
38226;SDS011;24026;49.446;8.576;2024-02-04T13:34:52;121.72;;;108.95;;
38226;SDS011;24026;49.446;8.576;2024-02-04T13:37:12;120.45;;;107.70;;